San Vicente la Barquera

latitud = 43° 23' 40''N | longitud = 004° 23' 27''W
40 metros sobre el nivel del mar | datos mensuales

Fecha, hora, temperatura, viento dirección y velocidad, humedad y presión.

  • 23-04-2018 10:00:00 | 13.00°C | Norte |10.00 km/h | 94.00% | 1017.50 hPa
  • 23-04-2018 09:00:00 | 13.00°C | Norte |9.00 km/h | 94.00% | 1016.80 hPa
  • 23-04-2018 08:00:00 | 13.00°C | Norte |13.00 km/h | 93.00% | 1016.20 hPa
  • 23-04-2018 07:00:00 | 13.40°C | Norte |3.00 km/h | 93.00% | 1015.90 hPa
  • 23-04-2018 06:00:00 | 13.30°C | Oeste |6.00 km/h | 93.00% | 1015.40 hPa
  • 23-04-2018 05:00:00 | 13.50°C | Norte |5.00 km/h | 93.00% | 1015.00 hPa
  • 23-04-2018 04:00:00 | 13.50°C | Nordeste |7.00 km/h | 93.00% | 1014.80 hPa
  • 23-04-2018 03:00:00 | 13.40°C | Este |2.00 km/h | 93.00% | 1014.50 hPa
  • 23-04-2018 02:00:00 | 13.20°C | Noroeste |3.00 km/h | 93.00% | 1015.40 hPa
  • 23-04-2018 01:00:00 | 13.40°C | Noroeste |5.00 km/h | 93.00% | 1015.60 hPa
  • 23-04-2018 00:00:00 | 13.50°C | Norte |5.00 km/h | 93.00% | 1015.50 hPa
  • 22-04-2018 23:00:00 | 13.60°C | Noroeste |7.00 km/h | 93.00% | 1015.00 hPa
  • 22-04-2018 22:00:00 | 13.90°C | Norte |8.00 km/h | 92.00% | 1014.70 hPa
  • 22-04-2018 21:00:00 | 13.90°C | Norte |9.00 km/h | 92.00% | 1013.80 hPa
  • 22-04-2018 20:00:00 | 14.00°C | Norte |12.00 km/h | 92.00% | 1012.90 hPa
  • 22-04-2018 19:00:00 | 14.50°C | Noroeste |10.00 km/h | 91.00% | 1012.40 hPa
  • 22-04-2018 18:00:00 | 16.00°C | Noroeste |15.00 km/h | 87.00% | 1012.00 hPa
  • 22-04-2018 17:00:00 | 16.80°C | Norte |10.00 km/h | 88.00% | 1011.30 hPa
  • 22-04-2018 16:00:00 | 16.80°C | Nordeste |7.00 km/h | 86.00% | 1011.20 hPa
  • 22-04-2018 15:00:00 | 17.90°C | Este |9.00 km/h | 78.00% | 1011.30 hPa
  • 22-04-2018 14:00:00 | 16.80°C | Este |8.00 km/h | 80.00% | 1011.30 hPa
  • 22-04-2018 13:00:00 | 17.60°C | Nordeste |5.00 km/h | 75.00% | 1012.20 hPa
  • 22-04-2018 12:00:00 | 17.40°C | Este |4.00 km/h | 73.00% | 1012.80 hPa
  • 22-04-2018 11:00:00 | 16.80°C | Norte |3.00 km/h | 75.00% | 1012.70 hPa